createdAt,value
2022-08-27T00:01:26.579Z,10.68
2022-08-27T00:04:00.324Z,10.85
2022-08-27T00:06:30.069Z,10.30
2022-08-27T00:09:02.840Z,10.13
2022-08-27T00:11:34.262Z,10.95
2022-08-27T00:14:07.801Z,11.25
2022-08-27T00:16:35.581Z,12.15
2022-08-27T00:19:07.475Z,11.65
2022-08-27T00:21:37.150Z,10.00
2022-08-27T00:24:13.305Z,10.90
2022-08-27T00:26:48.129Z,11.35
2022-08-27T00:29:17.939Z,10.90
2022-08-27T00:31:52.982Z,10.48
2022-08-27T00:34:24.938Z,9.50
2022-08-27T00:36:53.260Z,12.25
2022-08-27T00:39:26.749Z,11.05
2022-08-27T00:41:58.777Z,8.70
2022-08-27T00:44:28.897Z,9.10
2022-08-27T00:47:04.301Z,9.90
2022-08-27T00:49:49.391Z,11.40
2022-08-27T00:52:38.133Z,9.90
2022-08-27T00:55:28.629Z,9.88
2022-08-27T00:58:40.397Z,9.52
2022-08-27T01:01:13.937Z,10.02
2022-08-27T01:03:49.650Z,9.03
2022-08-27T01:06:21.491Z,9.18
2022-08-27T01:09:02.654Z,10.60
2022-08-27T01:11:35.321Z,11.50
2022-08-27T01:14:07.928Z,9.45
2022-08-27T01:19:58.791Z,10.38
2022-08-27T01:22:45.391Z,11.57
2022-08-27T01:25:20.964Z,10.73
2022-08-27T01:27:54.867Z,10.95
2022-08-27T01:30:28.858Z,11.98
2022-08-27T01:33:03.508Z,11.10
2022-08-27T01:35:46.382Z,10.38
2022-08-27T01:38:30.226Z,11.38
2022-08-27T01:41:03.976Z,10.82
2022-08-27T01:43:41.566Z,10.10
2022-08-27T01:46:08.804Z,10.75
2022-08-27T01:48:40.388Z,11.57
2022-08-27T01:51:10.020Z,11.40
2022-08-27T01:53:42.196Z,10.63
2022-08-27T01:56:13.348Z,11.40
2022-08-27T01:58:46.103Z,11.13
2022-08-27T02:01:28.271Z,11.90
2022-08-27T02:03:59.673Z,11.50
2022-08-27T02:06:34.510Z,12.63
2022-08-27T02:09:08.292Z,12.43
2022-08-27T02:11:35.746Z,12.13
2022-08-27T02:14:15.742Z,12.27
2022-08-27T02:16:52.112Z,11.25
2022-08-27T02:19:26.018Z,11.93
2022-08-27T02:22:02.336Z,11.53
2022-08-27T02:24:34.206Z,11.25
2022-08-27T02:27:03.850Z,10.63
2022-08-27T02:29:36.584Z,11.15
2022-08-27T02:32:08.280Z,10.82
2022-08-27T02:34:53.274Z,10.23
2022-08-27T02:37:43.978Z,9.38
2022-08-27T02:40:25.255Z,9.65
2022-08-27T02:42:56.777Z,9.38
2022-08-27T02:45:26.749Z,9.50
2022-08-27T02:47:58.188Z,10.32
2022-08-27T02:50:35.383Z,10.43
2022-08-27T02:53:08.590Z,10.32
2022-08-27T02:55:41.242Z,9.82
2022-08-27T02:58:17.695Z,10.07
2022-08-27T03:00:48.188Z,9.70
2022-08-27T03:03:15.919Z,9.52
2022-08-27T03:05:45.321Z,10.43
2022-08-27T03:08:15.061Z,10.05
2022-08-27T03:10:45.400Z,9.60
2022-08-27T03:13:13.774Z,10.85
2022-08-27T03:15:44.325Z,11.35
2022-08-27T03:18:27.098Z,10.80
2022-08-27T03:23:42.285Z,10.65
2022-08-27T03:26:14.753Z,12.57
2022-08-27T03:28:45.401Z,12.10
2022-08-27T03:31:27.216Z,13.45
2022-08-27T03:33:57.949Z,11.88
2022-08-27T03:36:32.630Z,12.50
2022-08-27T03:39:02.358Z,12.60
2022-08-27T03:41:55.032Z,11.43
2022-08-27T03:44:22.729Z,13.80
2022-08-27T03:46:52.068Z,12.40
2022-08-27T03:49:21.514Z,12.10
2022-08-27T03:51:54.077Z,11.82
2022-08-27T03:54:28.244Z,11.90
2022-08-27T03:56:57.978Z,10.85
2022-08-27T03:59:28.839Z,11.82
2022-08-27T04:01:57.908Z,11.48
2022-08-27T04:04:30.766Z,10.52
2022-08-27T04:07:02.080Z,11.20
2022-08-27T04:09:35.094Z,10.82
2022-08-27T04:12:08.042Z,10.50
2022-08-27T04:14:39.753Z,11.50
2022-08-27T04:17:08.982Z,10.68
2022-08-27T04:19:40.286Z,11.73
2022-08-27T04:22:13.065Z,10.48
2022-08-27T04:24:42.008Z,11.37
2022-08-27T04:27:18.780Z,10.68
2022-08-27T04:32:18.496Z,9.68
2022-08-27T04:34:57.199Z,9.73
2022-08-27T04:37:27.852Z,9.43
2022-08-27T04:39:58.746Z,10.57
2022-08-27T04:42:30.537Z,11.27
2022-08-27T04:44:59.347Z,10.68
2022-08-27T04:47:27.917Z,11.60
2022-08-27T04:49:59.505Z,12.10
2022-08-27T04:52:29.440Z,10.52
2022-08-27T04:55:01.033Z,12.52
2022-08-27T04:57:42.032Z,12.00
2022-08-27T05:00:14.330Z,12.15
2022-08-27T05:02:48.793Z,11.30
2022-08-27T05:05:20.594Z,11.85
2022-08-27T05:07:50.494Z,11.02
2022-08-27T05:10:23.873Z,11.05
2022-08-27T05:12:58.077Z,11.95
2022-08-27T05:15:31.367Z,11.43
2022-08-27T05:18:03.616Z,11.48
2022-08-27T05:20:36.080Z,11.27
2022-08-27T05:23:07.846Z,11.48
2022-08-27T05:25:55.989Z,11.57
2022-08-27T05:28:27.762Z,12.27
2022-08-27T05:31:06.177Z,11.60
2022-08-27T05:33:41.261Z,13.55
2022-08-27T05:36:23.129Z,13.25
2022-08-27T05:38:52.897Z,13.73
2022-08-27T05:41:38.991Z,14.65
2022-08-27T05:44:40.080Z,13.27
2022-08-27T05:47:03.372Z,12.63
2022-08-27T05:49:34.071Z,11.98
2022-08-27T05:52:13.692Z,13.05
2022-08-27T05:54:46.776Z,13.70
2022-08-27T05:57:14.776Z,12.60
2022-08-27T06:00:04.260Z,10.77
2022-08-27T06:02:43.465Z,12.40
2022-08-27T06:05:12.140Z,14.32
2022-08-27T06:07:46.009Z,12.60
2022-08-27T06:10:19.514Z,13.52
2022-08-27T06:12:50.322Z,13.48
2022-08-27T06:15:23.227Z,12.27
2022-08-27T06:17:53.474Z,13.10
2022-08-27T06:20:24.548Z,13.27
2022-08-27T06:25:43.710Z,13.43
2022-08-27T06:28:14.337Z,14.25
2022-08-27T06:30:46.113Z,12.77
2022-08-27T06:33:17.767Z,13.27
2022-08-27T06:35:49.411Z,14.15
2022-08-27T06:38:20.757Z,13.75
2022-08-27T06:40:51.464Z,14.43
2022-08-27T06:43:25.105Z,13.80
2022-08-27T06:45:57.293Z,11.48
2022-08-27T06:48:27.499Z,12.32
2022-08-27T06:50:58.833Z,12.63
2022-08-27T06:53:30.652Z,11.93
2022-08-27T06:55:59.963Z,12.88
2022-08-27T06:58:31.269Z,12.40
2022-08-27T07:01:00.929Z,12.40
2022-08-27T07:03:28.423Z,11.82
2022-08-27T07:06:05.867Z,12.85
2022-08-27T07:08:34.083Z,11.20
2022-08-27T07:11:05.996Z,10.65
2022-08-27T07:13:40.323Z,10.82
2022-08-27T07:16:19.879Z,11.20
2022-08-27T07:18:56.822Z,11.65
2022-08-27T07:21:30.908Z,11.32
2022-08-27T07:24:05.347Z,11.25
2022-08-27T07:26:39.439Z,10.90
2022-08-27T07:29:09.733Z,11.73
2022-08-27T07:31:42.476Z,10.85
2022-08-27T07:34:13.369Z,11.90
2022-08-27T07:36:42.794Z,11.73
2022-08-27T07:39:14.677Z,11.25
2022-08-27T07:42:02.701Z,11.02
2022-08-27T07:44:34.286Z,11.15
2022-08-27T07:47:12.010Z,10.27
2022-08-27T07:49:42.908Z,10.02
2022-08-27T07:52:12.125Z,11.45
2022-08-27T07:54:41.561Z,10.43
2022-08-27T07:57:11.620Z,9.65
2022-08-27T07:59:42.949Z,9.45
2022-08-27T08:02:15.265Z,10.35
2022-08-27T08:04:42.679Z,11.30
2022-08-27T08:07:13.620Z,10.23
2022-08-27T08:09:42.037Z,10.25
2022-08-27T08:12:14.047Z,10.77
2022-08-27T08:14:46.567Z,9.57
2022-08-27T08:17:17.339Z,9.10
2022-08-27T08:20:02.451Z,9.60
2022-08-27T08:22:42.431Z,9.50
2022-08-27T08:25:14.777Z,9.73
2022-08-27T08:27:45.141Z,10.30
2022-08-27T08:30:15.010Z,9.55
2022-08-27T08:32:46.937Z,10.00
2022-08-27T08:35:17.644Z,9.82
2022-08-27T08:37:46.993Z,9.00
2022-08-27T08:40:41.592Z,10.20
2022-08-27T08:43:25.217Z,9.30
2022-08-27T08:48:29.903Z,9.40
2022-08-27T08:51:37.465Z,9.38
2022-08-27T08:54:20.322Z,9.90
2022-08-27T08:57:23.426Z,8.68
2022-08-27T09:00:05.382Z,9.02
2022-08-27T09:02:36.926Z,8.82
2022-08-27T09:05:09.569Z,8.32
2022-08-27T09:08:31.952Z,8.95
2022-08-27T09:11:34.110Z,9.02
2022-08-27T09:14:28.028Z,8.80
2022-08-27T09:17:02.497Z,8.80
2022-08-27T09:19:38.729Z,7.68
2022-08-27T09:22:44.628Z,7.80
2022-08-27T09:25:37.926Z,7.95
2022-08-27T09:28:39.571Z,7.82
2022-08-27T09:31:15.140Z,7.50
2022-08-27T09:33:56.497Z,7.55
2022-08-27T09:36:26.164Z,7.88
2022-08-27T09:39:10.439Z,8.50
2022-08-27T09:41:45.696Z,7.47
2022-08-27T09:44:30.541Z,8.95
2022-08-27T09:47:05.103Z,8.93
2022-08-27T09:49:38.906Z,8.73
2022-08-27T09:52:10.547Z,7.75
2022-08-27T09:54:52.262Z,8.63
2022-08-27T09:57:41.176Z,6.82
2022-08-27T10:00:19.354Z,6.20
2022-08-27T10:02:55.556Z,7.03
2022-08-27T10:05:32.843Z,6.13
2022-08-27T10:08:08.558Z,6.78
2022-08-27T10:11:11.593Z,5.60
2022-08-27T10:14:13.980Z,6.82
2022-08-27T10:16:57.943Z,5.97
2022-08-27T10:20:11.314Z,5.22
2022-08-27T10:23:08.353Z,5.93
2022-08-27T10:25:50.700Z,6.03
2022-08-27T10:28:50.100Z,7.75
2022-08-27T10:31:46.331Z,5.00
2022-08-27T10:34:50.512Z,3.95
2022-08-27T10:37:40.228Z,4.28
2022-08-27T10:40:42.033Z,4.50
2022-08-27T10:43:34.330Z,3.92
2022-08-27T10:46:38.777Z,4.40
2022-08-27T10:49:47.015Z,5.00
2022-08-27T10:52:40.569Z,5.20
2022-08-27T10:55:28.885Z,5.75
2022-08-27T10:58:32.336Z,5.28
2022-08-27T11:01:31.479Z,6.18
2022-08-27T11:04:26.461Z,5.65
2022-08-27T11:07:34.124Z,4.95
2022-08-27T11:10:22.883Z,6.00
2022-08-27T11:12:54.295Z,5.57
2022-08-27T11:15:37.160Z,5.45
2022-08-27T11:18:33.864Z,4.97
2022-08-27T11:21:25.273Z,4.47
2022-08-27T11:24:34.953Z,5.22
2022-08-27T11:27:09.594Z,4.97
2022-08-27T11:30:02.469Z,4.50
2022-08-27T11:33:04.502Z,4.37
2022-08-27T11:36:08.319Z,4.82
2022-08-27T11:39:00.644Z,5.40
2022-08-27T11:41:59.984Z,5.43
2022-08-27T11:44:31.005Z,5.05
2022-08-27T11:47:25.035Z,6.45
2022-08-27T11:50:01.930Z,5.78
2022-08-27T11:53:08.528Z,4.55
2022-08-27T11:58:26.680Z,4.63
2022-08-27T12:01:03.880Z,5.28
2022-08-27T12:03:37.199Z,4.85
2022-08-27T12:06:30.117Z,5.50
2022-08-27T12:09:14.912Z,5.35
2022-08-27T12:11:56.658Z,6.07
2022-08-27T12:14:55.772Z,5.45
2022-08-27T12:17:52.414Z,6.78
2022-08-27T12:20:47.441Z,5.70
2022-08-27T12:23:55.939Z,5.38
2022-08-27T12:26:36.793Z,5.15
2022-08-27T12:29:31.926Z,6.47
2022-08-27T12:32:38.905Z,6.30
2022-08-27T12:35:21.856Z,5.20
2022-08-27T12:37:54.055Z,5.25
2022-08-27T12:40:33.254Z,4.82
2022-08-27T12:43:19.829Z,5.30
2022-08-27T12:46:29.834Z,6.22
2022-08-27T12:49:38.788Z,4.68
2022-08-27T12:51:58.850Z,5.20
2022-08-27T12:55:27.294Z,5.35
2022-08-27T13:01:46.643Z,5.53
2022-08-27T13:04:24.490Z,5.28
2022-08-27T13:06:54.919Z,5.38
2022-08-27T13:09:36.797Z,5.22
2022-08-27T13:12:26.554Z,5.25
2022-08-27T13:15:07.412Z,5.68
2022-08-27T13:17:43.660Z,4.47
2022-08-27T13:20:27.517Z,5.30
2022-08-27T13:22:59.930Z,5.03
2022-08-27T13:25:33.736Z,5.43
2022-08-27T13:28:12.977Z,5.80
2022-08-27T13:30:54.730Z,5.97
2022-08-27T13:33:33.718Z,5.60
2022-08-27T13:36:05.917Z,5.45
2022-08-27T13:38:36.518Z,6.15
2022-08-27T13:41:35.680Z,6.25
2022-08-27T13:44:19.950Z,5.95
2022-08-27T13:46:56.019Z,5.53
2022-08-27T13:49:30.033Z,5.57
2022-08-27T13:52:22.450Z,5.68
2022-08-27T13:55:15.126Z,5.65
2022-08-27T13:57:52.695Z,5.25
2022-08-27T14:00:36.005Z,5.03
2022-08-27T14:03:06.495Z,6.13
2022-08-27T14:05:51.732Z,6.10
2022-08-27T14:08:28.120Z,6.25
2022-08-27T14:11:06.897Z,5.95
2022-08-27T14:13:47.106Z,6.22
2022-08-27T14:16:33.431Z,5.63
2022-08-27T14:19:14.209Z,4.50
2022-08-27T14:21:48.103Z,4.60
2022-08-27T14:24:19.625Z,4.72
2022-08-27T14:26:53.710Z,6.15
2022-08-27T14:29:25.031Z,4.72
2022-08-27T14:31:52.635Z,5.72
2022-08-27T14:34:23.352Z,5.88
2022-08-27T14:36:54.613Z,5.30
2022-08-27T14:39:26.669Z,4.63
2022-08-27T14:41:58.954Z,4.40
2022-08-27T14:44:29.710Z,4.43
2022-08-27T14:47:00.967Z,4.88
2022-08-27T14:49:39.697Z,3.97
2022-08-27T14:52:11.913Z,5.57
2022-08-27T14:54:43.265Z,4.97
2022-08-27T14:57:12.346Z,4.63
2022-08-27T14:59:42.667Z,4.38
2022-08-27T15:02:16.444Z,4.60
2022-08-27T15:04:49.209Z,5.60
2022-08-27T15:07:20.632Z,5.28
2022-08-27T15:09:58.206Z,5.35
2022-08-27T15:12:30.794Z,4.93
2022-08-27T15:14:58.822Z,5.32
2022-08-27T15:17:34.089Z,5.30
2022-08-27T15:20:11.804Z,4.55
2022-08-27T15:22:56.418Z,4.50
2022-08-27T15:25:24.728Z,4.05
2022-08-27T15:27:55.419Z,4.45
2022-08-27T15:30:37.404Z,4.55
2022-08-27T15:33:09.644Z,4.43
2022-08-27T15:35:38.492Z,4.30
2022-08-27T15:38:11.362Z,5.22
2022-08-27T15:40:41.044Z,6.55
2022-08-27T15:43:14.161Z,6.00
2022-08-27T15:45:46.289Z,5.28
2022-08-27T15:48:17.737Z,4.68
2022-08-27T15:50:48.962Z,6.47
2022-08-27T15:53:21.833Z,5.25
2022-08-27T15:55:50.456Z,5.78
2022-08-27T15:58:20.147Z,5.18
2022-08-27T16:00:58.612Z,6.38
2022-08-27T16:03:35.479Z,4.85
2022-08-27T16:06:11.279Z,4.60
2022-08-27T16:08:41.897Z,4.85
2022-08-27T16:11:12.841Z,4.80
2022-08-27T16:13:44.747Z,5.10
2022-08-27T16:16:13.620Z,5.47
2022-08-27T16:18:46.590Z,5.40
2022-08-27T16:21:17.007Z,5.47
2022-08-27T16:23:49.074Z,5.40
2022-08-27T16:26:19.788Z,5.80
2022-08-27T16:28:50.336Z,5.38
2022-08-27T16:31:19.029Z,4.75
2022-08-27T16:33:49.024Z,5.07
2022-08-27T16:36:21.193Z,6.80
2022-08-27T16:38:49.524Z,6.03
2022-08-27T16:41:19.316Z,5.70
2022-08-27T16:43:49.362Z,7.82
2022-08-27T16:46:19.337Z,8.40
2022-08-27T16:49:10.334Z,9.63
2022-08-27T16:51:41.022Z,11.13
2022-08-27T16:54:15.270Z,8.80
2022-08-27T16:56:48.309Z,8.48
2022-08-27T16:59:16.824Z,9.75
2022-08-27T17:01:52.376Z,13.38
2022-08-27T17:04:32.291Z,10.27
2022-08-27T17:07:07.937Z,8.82
2022-08-27T17:09:46.693Z,8.18
2022-08-27T17:12:22.437Z,7.78
2022-08-27T17:14:51.713Z,11.40
2022-08-27T17:17:21.568Z,14.25
2022-08-27T17:19:53.436Z,14.57
2022-08-27T17:22:25.929Z,9.93
2022-08-27T17:24:55.788Z,7.23
2022-08-27T17:27:25.175Z,5.88
2022-08-27T17:29:55.542Z,6.70
2022-08-27T17:32:25.132Z,7.22
2022-08-27T17:34:52.363Z,11.00
2022-08-27T17:37:20.958Z,11.40
2022-08-27T17:39:49.269Z,9.68
2022-08-27T17:42:19.779Z,8.48
2022-08-27T17:44:52.966Z,8.93
2022-08-27T17:47:22.883Z,11.07
2022-08-27T17:49:50.532Z,7.75
2022-08-27T17:52:22.059Z,8.20
2022-08-27T17:54:54.652Z,7.18
2022-08-27T17:57:27.129Z,7.75
2022-08-27T18:00:02.737Z,9.45
2022-08-27T18:02:44.736Z,11.95
2022-08-27T18:05:19.502Z,18.55
2022-08-27T18:07:51.208Z,15.25
2022-08-27T18:10:33.361Z,11.85
2022-08-27T18:13:00.928Z,9.88
2022-08-27T18:15:33.978Z,9.73
2022-08-27T18:18:04.182Z,12.40
2022-08-27T18:20:47.714Z,12.73
2022-08-27T18:23:22.559Z,11.27
2022-08-27T18:25:57.790Z,15.75
2022-08-27T18:28:29.212Z,15.27
2022-08-27T18:31:00.466Z,18.02
2022-08-27T18:33:35.650Z,31.67
2022-08-27T18:36:06.139Z,22.13
2022-08-27T18:38:39.475Z,20.17
2022-08-27T18:41:10.470Z,17.85
2022-08-27T18:43:41.887Z,16.15
2022-08-27T18:46:11.091Z,13.93
2022-08-27T18:48:42.379Z,15.77
2022-08-27T18:51:17.184Z,16.85
2022-08-27T18:53:46.661Z,17.55
2022-08-27T18:56:22.117Z,37.38
2022-08-27T18:58:53.401Z,41.22
2022-08-27T19:01:27.221Z,24.35
2022-08-27T19:03:59.546Z,20.52
2022-08-27T19:06:27.718Z,17.60
2022-08-27T19:08:59.492Z,14.63
2022-08-27T19:11:33.763Z,14.15
2022-08-27T19:14:02.172Z,14.35
2022-08-27T19:16:53.670Z,20.33
2022-08-27T19:19:28.016Z,19.20
2022-08-27T19:21:58.622Z,16.27
2022-08-27T19:24:37.555Z,30.02
2022-08-27T19:27:11.957Z,20.02
2022-08-27T19:29:43.330Z,17.67
2022-08-27T19:32:16.373Z,16.48
2022-08-27T19:34:43.544Z,18.60
2022-08-27T19:37:19.550Z,33.05
2022-08-27T19:39:50.535Z,23.15
2022-08-27T19:42:25.327Z,15.85
2022-08-27T19:44:52.960Z,14.95
2022-08-27T19:47:28.741Z,10.52
2022-08-27T19:49:59.723Z,10.18
2022-08-27T19:52:36.688Z,15.85
2022-08-27T19:55:20.410Z,34.45
2022-08-27T19:57:52.849Z,20.63
2022-08-27T20:00:28.318Z,18.27
2022-08-27T20:02:59.435Z,19.63
2022-08-27T20:05:27.312Z,19.35
2022-08-27T20:07:58.457Z,18.50
2022-08-27T20:10:36.576Z,19.83
2022-08-27T20:13:09.635Z,20.27
2022-08-27T20:15:41.041Z,17.85
2022-08-27T20:18:13.005Z,13.45
2022-08-27T20:20:43.548Z,11.82
2022-08-27T20:23:14.621Z,12.65
2022-08-27T20:25:45.492Z,26.60
2022-08-27T20:28:39.001Z,26.17
2022-08-27T20:31:11.091Z,18.90
2022-08-27T20:33:43.961Z,23.55
2022-08-27T20:36:15.903Z,26.08
2022-08-27T20:38:46.621Z,22.48
2022-08-27T20:41:16.339Z,17.75
2022-08-27T20:43:45.401Z,16.98
2022-08-27T20:46:18.301Z,14.15
2022-08-27T20:48:48.242Z,13.10
2022-08-27T20:51:19.064Z,12.57
2022-08-27T20:53:51.286Z,13.93
2022-08-27T20:56:25.521Z,16.10
2022-08-27T20:59:17.433Z,29.55
2022-08-27T21:01:47.626Z,26.10
2022-08-27T21:04:21.502Z,21.65
2022-08-27T21:06:57.944Z,19.17
2022-08-27T21:09:29.958Z,19.73
2022-08-27T21:12:03.452Z,16.77
2022-08-27T21:14:32.210Z,14.50
2022-08-27T21:17:02.540Z,15.48
2022-08-27T21:19:29.996Z,20.65
2022-08-27T21:22:05.619Z,20.92
2022-08-27T21:24:36.885Z,18.30
2022-08-27T21:27:15.690Z,12.88
2022-08-27T21:29:48.451Z,14.55
2022-08-27T21:32:19.937Z,15.30
2022-08-27T21:34:51.102Z,17.40
2022-08-27T21:37:20.150Z,16.08
2022-08-27T21:39:52.581Z,16.02
2022-08-27T21:42:20.496Z,17.15
2022-08-27T21:44:49.701Z,11.20
2022-08-27T21:47:20.770Z,10.82
2022-08-27T21:49:53.102Z,12.23
2022-08-27T21:52:21.404Z,15.25
2022-08-27T21:54:50.405Z,16.10
2022-08-27T21:57:19.965Z,15.00
2022-08-27T21:59:51.448Z,19.77
2022-08-27T22:02:41.025Z,11.18
2022-08-27T22:05:10.846Z,11.65
2022-08-27T22:07:41.514Z,9.27
2022-08-27T22:10:13.717Z,10.85
2022-08-27T22:12:45.577Z,12.32
2022-08-27T22:15:15.562Z,13.50
2022-08-27T22:17:51.361Z,12.00
2022-08-27T22:20:21.297Z,13.50
2022-08-27T22:22:50.518Z,11.90
2022-08-27T22:25:19.870Z,15.68
2022-08-27T22:27:52.680Z,15.60
2022-08-27T22:30:23.641Z,17.30
2022-08-27T22:32:55.756Z,19.42
2022-08-27T22:35:29.037Z,14.38
2022-08-27T22:38:00.910Z,13.63
2022-08-27T22:40:36.647Z,16.45
2022-08-27T22:43:07.856Z,17.38
2022-08-27T22:45:39.122Z,15.32
2022-08-27T22:48:13.252Z,12.40
2022-08-27T22:50:42.686Z,13.40
2022-08-27T22:53:13.992Z,11.40
2022-08-27T22:55:50.234Z,12.05
2022-08-27T22:58:24.406Z,11.20
2022-08-27T23:00:55.968Z,10.20
2022-08-27T23:03:26.882Z,9.82
2022-08-27T23:05:56.639Z,11.10
2022-08-27T23:08:25.540Z,10.02
2022-08-27T23:10:57.054Z,10.25
2022-08-27T23:13:27.894Z,9.90
2022-08-27T23:15:57.731Z,10.05
2022-08-27T23:18:29.147Z,10.73
2022-08-27T23:21:02.056Z,11.80
2022-08-27T23:23:33.454Z,11.40
2022-08-27T23:26:24.628Z,10.88
2022-08-27T23:28:55.471Z,10.27
2022-08-27T23:31:30.427Z,9.45
2022-08-27T23:34:02.455Z,11.15
2022-08-27T23:36:36.197Z,11.63
2022-08-27T23:39:07.909Z,10.38
2022-08-27T23:41:38.404Z,10.30
2022-08-27T23:44:08.898Z,11.70
2022-08-27T23:46:38.606Z,12.50
2022-08-27T23:49:05.792Z,11.18
2022-08-27T23:51:36.682Z,10.15
2022-08-27T23:54:07.673Z,10.15
2022-08-27T23:56:40.244Z,10.38
2022-08-27T23:59:09.460Z,9.75
